»·PEaware :: N667LB KLAX-KSAN

N667LB :: KLAX-KSAN

FLIGHT INFORMATION

Flight Status: Arrived
Operator: Privately registered:
United States
More flights under this callsign
Pilot: Chase R. (27276)
Aircraft: PILATUS PC-12 EAGLE
(PC12)
More flights by this aircraft type
Origin: KLAX Los Angeles Intl
United States
Destination: KSAN San Diego Intl-Lindbergh
United States
More flights between these airports :: More routes between these airports
Route: +
File this flight plan on PilotEdge
Remarks: Cat 11 Cert
Altitude:
(Current/Filed)
9,500ft
Speed:
(Current/Filed)
200kts
Departed: 08-Jan-20 09:00 PM
Arrived: 08-Jan-20 09:37 PM
Distance/Time
Traveled:
93nm/0:37
Distance/Time
To Go:
Arrived

Flight Plot

Page will automatically refresh every two minutes.


Map Options




Map Legend


Flown Route
Filed Route
Departure Airport
Arrival Airport
Navaid (VOR, NDB)
Fix

Horizontal Profiles

Position Reports

Time Latitude Longitude Heading Altitude Ground
Speed
08-Jan-20 20:40 33.932656 -118.399157 83 129ft 0kts
08-Jan-20 20:41 33.932656 -118.399157 83 129ft 0kts
08-Jan-20 20:42 33.932656 -118.399157 83 129ft 0kts
08-Jan-20 20:43 33.932656 -118.399157 83 129ft 0kts
08-Jan-20 20:44 33.932656 -118.399157 83 129ft 0kts
08-Jan-20 20:45 33.932656 -118.399157 83 129ft 0kts
08-Jan-20 20:46 33.932774 -118.399009 24 129ft 0kts
08-Jan-20 20:47 33.933817 -118.398290 22 129ft 2kts
08-Jan-20 20:48 33.934879 -118.394971 80 129ft 17kts
08-Jan-20 20:49 33.935534 -118.388572 83 129ft 21kts
08-Jan-20 20:50 33.936321 -118.382900 24 129ft 6kts
08-Jan-20 20:51 33.936395 -118.382867 19 129ft 0kts
08-Jan-20 20:52 33.936395 -118.382867 19 129ft 0kts
08-Jan-20 20:53 33.936395 -118.382867 19 129ft 0kts
08-Jan-20 20:54 33.936395 -118.382867 19 129ft 0kts
08-Jan-20 20:55 33.936397 -118.382866 19 129ft 0kts
08-Jan-20 20:56 33.936397 -118.382866 19 129ft 0kts
08-Jan-20 20:57 33.936397 -118.382866 19 129ft 0kts
08-Jan-20 20:58 33.936397 -118.382866 19 129ft 0kts
08-Jan-20 20:59 33.937263 -118.383594 263 129ft 19kts
08-Jan-20 20:59 33.934769 -118.407946 262 356ft 128kts
08-Jan-20 21:01 33.927551 -118.465242 262 2153ft 165kts
08-Jan-20 21:02 33.923746 -118.527616 268 2906ft 197kts
08-Jan-20 21:02 33.922844 -118.586209 262 2985ft 214kts
08-Jan-20 21:04 33.884819 -118.656562 198 3687ft 210kts
08-Jan-20 21:04 33.835002 -118.651303 168 4484ft 208kts
08-Jan-20 21:05 33.774541 -118.640675 171 5395ft 206kts
08-Jan-20 21:06 33.713607 -118.629382 171 5501ft 221kts
08-Jan-20 21:07 33.649336 -118.616428 171 5501ft 225kts
08-Jan-20 21:08 33.585260 -118.602364 171 5659ft 218kts
08-Jan-20 21:09 33.531006 -118.570769 139 6442ft 208kts
08-Jan-20 21:10 33.515382 -118.502187 94 7130ft 208kts
08-Jan-20 21:11 33.507086 -118.430325 108 7828ft 219kts
08-Jan-20 21:12 33.471865 -118.367639 126 8591ft 223kts
08-Jan-20 21:13 33.434206 -118.306805 127 9338ft 226kts
08-Jan-20 21:14 33.393645 -118.241411 126 9472ft 243kts
08-Jan-20 21:15 33.352188 -118.174454 126 9472ft 243kts
08-Jan-20 21:16 33.311745 -118.109288 127 9468ft 216kts
08-Jan-20 21:17 33.276710 -118.052848 127 9471ft 196kts
08-Jan-20 21:18 33.242104 -117.997323 126 9478ft 213kts
08-Jan-20 21:19 33.203705 -117.935860 126 9475ft 231kts
08-Jan-20 21:20 33.164685 -117.873417 125 9474ft 236kts
08-Jan-20 21:21 33.124016 -117.808395 125 9474ft 236kts
08-Jan-20 21:22 33.083633 -117.743939 125 9479ft 237kts
08-Jan-20 21:23 33.050515 -117.675602 108 9494ft 236kts
08-Jan-20 21:24 33.027817 -117.602004 107 9494ft 236kts
08-Jan-20 21:25 33.005100 -117.528585 107 9492ft 237kts
08-Jan-20 21:26 32.986865 -117.453999 93 9492ft 233kts
08-Jan-20 21:27 32.995027 -117.380502 76 9448ft 232kts
08-Jan-20 21:28 32.986689 -117.312754 117 8102ft 204kts
08-Jan-20 21:29 32.948260 -117.267242 167 5703ft 212kts
08-Jan-20 21:30 32.888815 -117.256805 169 3249ft 193kts
08-Jan-20 21:31 32.858336 -117.217965 87 1497ft 180kts
08-Jan-20 21:32 32.873608 -117.174858 52 1630ft 165kts
08-Jan-20 21:33 32.895780 -117.132347 72 1518ft 136kts
08-Jan-20 21:34 32.866214 -117.114107 195 1690ft 184kts
08-Jan-20 21:35 32.819391 -117.115391 170 1501ft 163kts
08-Jan-20 21:36 32.816885 -117.141500 296 426ft 21kts

Navigation Log

Ident Type
Flight plan parsing failed, navigation log unavailable